sensor_id;sensor_type;location;lat;lon;timestamp;P1;durP1;ratioP1;P2;durP2;ratioP2
72060;SDS011;59925;52.136;5.420;2023-09-08T00:02:09;8.20;;;6.57;;
72060;SDS011;59925;52.136;5.420;2023-09-08T00:04:36;12.45;;;6.95;;
72060;SDS011;59925;52.136;5.420;2023-09-08T00:07:02;9.40;;;7.22;;
72060;SDS011;59925;52.136;5.420;2023-09-08T00:09:30;8.10;;;6.93;;
72060;SDS011;59925;52.136;5.420;2023-09-08T00:11:56;7.70;;;6.53;;
72060;SDS011;59925;52.136;5.420;2023-09-08T00:14:23;9.25;;;7.00;;
72060;SDS011;59925;52.136;5.420;2023-09-08T00:16:51;8.50;;;6.75;;
72060;SDS011;59925;52.136;5.420;2023-09-08T00:19:21;10.27;;;6.93;;
72060;SDS011;59925;52.136;5.420;2023-09-08T00:21:49;9.27;;;6.90;;
72060;SDS011;59925;52.136;5.420;2023-09-08T00:24:16;8.70;;;7.20;;
72060;SDS011;59925;52.136;5.420;2023-09-08T00:26:44;10.27;;;7.45;;
72060;SDS011;59925;52.136;5.420;2023-09-08T00:29:10;11.68;;;7.85;;
72060;SDS011;59925;52.136;5.420;2023-09-08T00:31:37;8.57;;;6.47;;
72060;SDS011;59925;52.136;5.420;2023-09-08T00:34:03;10.07;;;6.43;;
72060;SDS011;59925;52.136;5.420;2023-09-08T00:36:30;9.45;;;6.38;;
72060;SDS011;59925;52.136;5.420;2023-09-08T00:38:56;9.35;;;6.78;;
72060;SDS011;59925;52.136;5.420;2023-09-08T00:41:23;9.40;;;6.30;;
72060;SDS011;59925;52.136;5.420;2023-09-08T00:43:52;7.88;;;6.45;;
72060;SDS011;59925;52.136;5.420;2023-09-08T00:46:19;9.00;;;6.43;;
72060;SDS011;59925;52.136;5.420;2023-09-08T00:48:45;8.88;;;7.05;;
72060;SDS011;59925;52.136;5.420;2023-09-08T00:51:12;8.98;;;7.07;;
72060;SDS011;59925;52.136;5.420;2023-09-08T00:53:38;8.48;;;6.32;;
72060;SDS011;59925;52.136;5.420;2023-09-08T00:56:05;9.73;;;7.15;;
72060;SDS011;59925;52.136;5.420;2023-09-08T00:58:33;9.60;;;7.43;;
72060;SDS011;59925;52.136;5.420;2023-09-08T01:01:00;9.02;;;6.60;;
72060;SDS011;59925;52.136;5.420;2023-09-08T01:03:27;8.38;;;6.68;;
72060;SDS011;59925;52.136;5.420;2023-09-08T01:05:54;7.80;;;6.28;;
72060;SDS011;59925;52.136;5.420;2023-09-08T01:08:21;7.70;;;6.03;;
72060;SDS011;59925;52.136;5.420;2023-09-08T01:10:48;9.83;;;7.60;;
72060;SDS011;59925;52.136;5.420;2023-09-08T01:13:15;9.65;;;7.13;;
72060;SDS011;59925;52.136;5.420;2023-09-08T01:15:41;9.23;;;7.00;;
72060;SDS011;59925;52.136;5.420;2023-09-08T01:18:08;8.43;;;6.50;;
72060;SDS011;59925;52.136;5.420;2023-09-08T01:23:17;8.50;;;6.07;;
72060;SDS011;59925;52.136;5.420;2023-09-08T01:28:23;8.90;;;6.97;;
72060;SDS011;59925;52.136;5.420;2023-09-08T01:30:51;10.25;;;7.03;;
72060;SDS011;59925;52.136;5.420;2023-09-08T01:33:19;9.88;;;7.82;;
72060;SDS011;59925;52.136;5.420;2023-09-08T01:35:45;9.63;;;7.23;;
72060;SDS011;59925;52.136;5.420;2023-09-08T01:38:12;10.10;;;7.82;;
72060;SDS011;59925;52.136;5.420;2023-09-08T01:40:39;8.18;;;7.05;;
72060;SDS011;59925;52.136;5.420;2023-09-08T01:43:05;8.55;;;6.78;;
72060;SDS011;59925;52.136;5.420;2023-09-08T01:45:31;10.48;;;6.78;;
72060;SDS011;59925;52.136;5.420;2023-09-08T01:47:58;9.20;;;6.73;;
72060;SDS011;59925;52.136;5.420;2023-09-08T01:50:25;8.30;;;6.25;;
72060;SDS011;59925;52.136;5.420;2023-09-08T01:52:51;8.85;;;5.97;;
72060;SDS011;59925;52.136;5.420;2023-09-08T01:55:18;8.57;;;6.55;;
72060;SDS011;59925;52.136;5.420;2023-09-08T01:57:44;8.68;;;6.40;;
72060;SDS011;59925;52.136;5.420;2023-09-08T02:00:11;7.90;;;6.57;;
72060;SDS011;59925;52.136;5.420;2023-09-08T02:02:38;10.95;;;6.60;;
72060;SDS011;59925;52.136;5.420;2023-09-08T02:05:05;9.38;;;6.70;;
72060;SDS011;59925;52.136;5.420;2023-09-08T02:07:32;10.00;;;6.95;;
72060;SDS011;59925;52.136;5.420;2023-09-08T02:09:59;9.32;;;6.65;;
72060;SDS011;59925;52.136;5.420;2023-09-08T02:12:25;9.47;;;7.30;;
72060;SDS011;59925;52.136;5.420;2023-09-08T02:14:52;10.48;;;7.82;;
72060;SDS011;59925;52.136;5.420;2023-09-08T02:17:19;10.55;;;7.40;;
72060;SDS011;59925;52.136;5.420;2023-09-08T02:19:45;9.48;;;7.20;;
72060;SDS011;59925;52.136;5.420;2023-09-08T02:22:12;10.15;;;7.20;;
72060;SDS011;59925;52.136;5.420;2023-09-08T02:24:38;9.87;;;7.23;;
72060;SDS011;59925;52.136;5.420;2023-09-08T02:27:04;10.45;;;8.25;;
72060;SDS011;59925;52.136;5.420;2023-09-08T02:29:31;12.55;;;8.70;;
72060;SDS011;59925;52.136;5.420;2023-09-08T02:31:58;10.35;;;8.13;;
72060;SDS011;59925;52.136;5.420;2023-09-08T02:34:24;9.38;;;7.45;;
72060;SDS011;59925;52.136;5.420;2023-09-08T02:36:51;10.53;;;8.07;;
72060;SDS011;59925;52.136;5.420;2023-09-08T02:39:17;9.68;;;7.47;;
72060;SDS011;59925;52.136;5.420;2023-09-08T02:41:44;21.58;;;7.88;;
72060;SDS011;59925;52.136;5.420;2023-09-08T02:44:10;8.82;;;7.35;;
72060;SDS011;59925;52.136;5.420;2023-09-08T02:46:37;13.20;;;7.03;;
72060;SDS011;59925;52.136;5.420;2023-09-08T02:49:03;9.03;;;6.93;;
72060;SDS011;59925;52.136;5.420;2023-09-08T02:51:30;9.45;;;7.20;;
72060;SDS011;59925;52.136;5.420;2023-09-08T02:53:57;12.02;;;8.00;;
72060;SDS011;59925;52.136;5.420;2023-09-08T02:56:23;8.82;;;6.75;;
72060;SDS011;59925;52.136;5.420;2023-09-08T02:58:50;14.48;;;7.65;;
72060;SDS011;59925;52.136;5.420;2023-09-08T03:01:16;8.57;;;6.83;;
72060;SDS011;59925;52.136;5.420;2023-09-08T03:03:46;9.93;;;7.18;;
72060;SDS011;59925;52.136;5.420;2023-09-08T03:06:15;9.27;;;7.50;;
72060;SDS011;59925;52.136;5.420;2023-09-08T03:08:45;10.60;;;7.90;;
72060;SDS011;59925;52.136;5.420;2023-09-08T03:11:12;11.23;;;7.78;;
72060;SDS011;59925;52.136;5.420;2023-09-08T03:13:38;10.60;;;7.57;;
72060;SDS011;59925;52.136;5.420;2023-09-08T03:16:05;9.68;;;7.38;;
72060;SDS011;59925;52.136;5.420;2023-09-08T03:18:33;10.13;;;7.70;;
72060;SDS011;59925;52.136;5.420;2023-09-08T03:21:03;12.43;;;8.40;;
72060;SDS011;59925;52.136;5.420;2023-09-08T03:23:39;9.90;;;7.90;;
72060;SDS011;59925;52.136;5.420;2023-09-08T03:26:07;11.50;;;7.67;;
72060;SDS011;59925;52.136;5.420;2023-09-08T03:28:34;11.10;;;7.88;;
72060;SDS011;59925;52.136;5.420;2023-09-08T03:31:02;11.40;;;8.45;;
72060;SDS011;59925;52.136;5.420;2023-09-08T03:33:29;11.95;;;7.80;;
72060;SDS011;59925;52.136;5.420;2023-09-08T03:35:55;12.00;;;7.50;;
72060;SDS011;59925;52.136;5.420;2023-09-08T03:38:22;9.23;;;7.70;;
72060;SDS011;59925;52.136;5.420;2023-09-08T03:40:49;10.73;;;7.20;;
72060;SDS011;59925;52.136;5.420;2023-09-08T03:43:15;9.65;;;7.72;;
72060;SDS011;59925;52.136;5.420;2023-09-08T03:45:42;10.95;;;7.43;;
72060;SDS011;59925;52.136;5.420;2023-09-08T03:48:09;10.65;;;6.80;;
72060;SDS011;59925;52.136;5.420;2023-09-08T03:50:36;10.27;;;6.83;;
72060;SDS011;59925;52.136;5.420;2023-09-08T03:53:02;14.93;;;7.20;;
72060;SDS011;59925;52.136;5.420;2023-09-08T03:55:29;10.35;;;7.13;;
72060;SDS011;59925;52.136;5.420;2023-09-08T03:57:55;9.73;;;7.68;;
72060;SDS011;59925;52.136;5.420;2023-09-08T04:00:22;11.75;;;7.43;;
72060;SDS011;59925;52.136;5.420;2023-09-08T04:02:49;10.87;;;7.40;;
72060;SDS011;59925;52.136;5.420;2023-09-08T04:05:16;11.15;;;7.55;;
72060;SDS011;59925;52.136;5.420;2023-09-08T04:07:46;10.73;;;7.57;;
72060;SDS011;59925;52.136;5.420;2023-09-08T04:10:12;10.55;;;7.93;;
72060;SDS011;59925;52.136;5.420;2023-09-08T04:12:40;10.30;;;7.78;;
72060;SDS011;59925;52.136;5.420;2023-09-08T04:15:07;11.10;;;7.90;;
72060;SDS011;59925;52.136;5.420;2023-09-08T04:17:35;13.10;;;8.38;;
72060;SDS011;59925;52.136;5.420;2023-09-08T04:20:05;11.75;;;7.75;;
72060;SDS011;59925;52.136;5.420;2023-09-08T04:22:33;9.20;;;7.10;;
72060;SDS011;59925;52.136;5.420;2023-09-08T04:25:00;11.43;;;7.00;;
72060;SDS011;59925;52.136;5.420;2023-09-08T04:27:27;11.07;;;7.37;;
72060;SDS011;59925;52.136;5.420;2023-09-08T04:29:53;11.75;;;8.50;;
72060;SDS011;59925;52.136;5.420;2023-09-08T04:32:20;12.57;;;8.85;;
72060;SDS011;59925;52.136;5.420;2023-09-08T04:34:46;13.25;;;8.27;;
72060;SDS011;59925;52.136;5.420;2023-09-08T04:37:13;14.95;;;8.48;;
72060;SDS011;59925;52.136;5.420;2023-09-08T04:39:40;12.17;;;8.73;;
72060;SDS011;59925;52.136;5.420;2023-09-08T04:42:06;11.15;;;7.93;;
72060;SDS011;59925;52.136;5.420;2023-09-08T04:44:33;9.90;;;8.23;;
72060;SDS011;59925;52.136;5.420;2023-09-08T04:47:00;11.52;;;8.70;;
72060;SDS011;59925;52.136;5.420;2023-09-08T04:49:27;13.20;;;8.65;;
72060;SDS011;59925;52.136;5.420;2023-09-08T04:51:55;10.07;;;7.60;;
72060;SDS011;59925;52.136;5.420;2023-09-08T04:54:21;11.75;;;8.18;;
72060;SDS011;59925;52.136;5.420;2023-09-08T04:56:50;11.63;;;7.70;;
72060;SDS011;59925;52.136;5.420;2023-09-08T04:59:17;10.27;;;7.82;;
72060;SDS011;59925;52.136;5.420;2023-09-08T05:01:43;11.65;;;7.70;;
72060;SDS011;59925;52.136;5.420;2023-09-08T05:04:11;13.50;;;8.63;;
72060;SDS011;59925;52.136;5.420;2023-09-08T05:06:38;13.50;;;8.57;;
72060;SDS011;59925;52.136;5.420;2023-09-08T05:09:04;9.77;;;7.80;;
72060;SDS011;59925;52.136;5.420;2023-09-08T05:11:31;8.75;;;7.00;;
72060;SDS011;59925;52.136;5.420;2023-09-08T05:13:58;12.32;;;8.15;;
72060;SDS011;59925;52.136;5.420;2023-09-08T05:16:24;11.17;;;7.83;;
72060;SDS011;59925;52.136;5.420;2023-09-08T05:19:05;10.50;;;7.97;;
72060;SDS011;59925;52.136;5.420;2023-09-08T05:21:33;11.27;;;7.45;;
72060;SDS011;59925;52.136;5.420;2023-09-08T05:24:00;12.43;;;8.48;;
72060;SDS011;59925;52.136;5.420;2023-09-08T05:26:27;12.93;;;7.93;;
72060;SDS011;59925;52.136;5.420;2023-09-08T05:28:53;12.20;;;7.90;;
72060;SDS011;59925;52.136;5.420;2023-09-08T05:31:20;10.38;;;7.22;;
72060;SDS011;59925;52.136;5.420;2023-09-08T05:33:46;11.25;;;8.07;;
72060;SDS011;59925;52.136;5.420;2023-09-08T05:36:13;10.57;;;8.00;;
72060;SDS011;59925;52.136;5.420;2023-09-08T05:38:41;14.25;;;9.27;;
72060;SDS011;59925;52.136;5.420;2023-09-08T05:41:07;11.17;;;8.33;;
72060;SDS011;59925;52.136;5.420;2023-09-08T05:43:34;12.82;;;8.73;;
72060;SDS011;59925;52.136;5.420;2023-09-08T05:46:01;12.75;;;9.18;;
72060;SDS011;59925;52.136;5.420;2023-09-08T05:48:28;16.25;;;8.98;;
72060;SDS011;59925;52.136;5.420;2023-09-08T05:50:55;12.27;;;9.35;;
72060;SDS011;59925;52.136;5.420;2023-09-08T05:53:21;13.07;;;8.47;;
72060;SDS011;59925;52.136;5.420;2023-09-08T05:55:48;13.07;;;8.57;;
72060;SDS011;59925;52.136;5.420;2023-09-08T05:58:15;14.52;;;8.38;;
72060;SDS011;59925;52.136;5.420;2023-09-08T06:00:41;13.75;;;9.00;;
72060;SDS011;59925;52.136;5.420;2023-09-08T06:03:08;13.27;;;8.90;;
72060;SDS011;59925;52.136;5.420;2023-09-08T06:05:34;14.57;;;10.10;;
72060;SDS011;59925;52.136;5.420;2023-09-08T06:08:01;13.00;;;9.90;;
72060;SDS011;59925;52.136;5.420;2023-09-08T06:10:33;15.45;;;9.60;;
72060;SDS011;59925;52.136;5.420;2023-09-08T06:13:00;12.40;;;9.85;;
72060;SDS011;59925;52.136;5.420;2023-09-08T06:15:27;14.98;;;10.20;;
72060;SDS011;59925;52.136;5.420;2023-09-08T06:17:54;14.60;;;10.47;;
72060;SDS011;59925;52.136;5.420;2023-09-08T06:20:21;14.85;;;10.55;;
72060;SDS011;59925;52.136;5.420;2023-09-08T06:22:48;15.95;;;10.30;;
72060;SDS011;59925;52.136;5.420;2023-09-08T06:25:15;16.38;;;10.95;;
72060;SDS011;59925;52.136;5.420;2023-09-08T06:27:42;14.32;;;10.23;;
72060;SDS011;59925;52.136;5.420;2023-09-08T06:30:09;13.90;;;10.27;;
72060;SDS011;59925;52.136;5.420;2023-09-08T06:32:36;17.98;;;11.93;;
72060;SDS011;59925;52.136;5.420;2023-09-08T06:35:02;15.40;;;10.77;;
72060;SDS011;59925;52.136;5.420;2023-09-08T06:37:29;14.20;;;10.75;;
72060;SDS011;59925;52.136;5.420;2023-09-08T06:40:01;16.50;;;10.57;;
72060;SDS011;59925;52.136;5.420;2023-09-08T06:42:28;15.77;;;11.37;;
72060;SDS011;59925;52.136;5.420;2023-09-08T06:44:55;17.48;;;10.85;;
72060;SDS011;59925;52.136;5.420;2023-09-08T06:47:21;18.48;;;11.70;;
72060;SDS011;59925;52.136;5.420;2023-09-08T06:49:48;15.57;;;11.52;;
72060;SDS011;59925;52.136;5.420;2023-09-08T06:52:14;15.75;;;11.32;;
72060;SDS011;59925;52.136;5.420;2023-09-08T06:54:41;18.83;;;11.40;;
72060;SDS011;59925;52.136;5.420;2023-09-08T06:57:08;18.95;;;11.63;;
72060;SDS011;59925;52.136;5.420;2023-09-08T06:59:35;18.23;;;12.00;;
72060;SDS011;59925;52.136;5.420;2023-09-08T07:02:01;16.05;;;10.98;;
72060;SDS011;59925;52.136;5.420;2023-09-08T07:04:28;17.20;;;11.50;;
72060;SDS011;59925;52.136;5.420;2023-09-08T07:06:55;19.27;;;11.70;;
72060;SDS011;59925;52.136;5.420;2023-09-08T07:09:21;14.65;;;11.50;;
72060;SDS011;59925;52.136;5.420;2023-09-08T07:11:48;17.10;;;11.50;;
72060;SDS011;59925;52.136;5.420;2023-09-08T07:14:14;16.23;;;11.63;;
72060;SDS011;59925;52.136;5.420;2023-09-08T07:16:40;15.85;;;10.65;;
72060;SDS011;59925;52.136;5.420;2023-09-08T07:19:07;17.17;;;11.07;;
72060;SDS011;59925;52.136;5.420;2023-09-08T07:21:34;15.27;;;10.75;;
72060;SDS011;59925;52.136;5.420;2023-09-08T07:24:00;14.10;;;10.25;;
72060;SDS011;59925;52.136;5.420;2023-09-08T07:26:27;15.00;;;10.70;;
72060;SDS011;59925;52.136;5.420;2023-09-08T07:28:53;14.00;;;10.55;;
72060;SDS011;59925;52.136;5.420;2023-09-08T07:31:20;15.97;;;11.53;;
72060;SDS011;59925;52.136;5.420;2023-09-08T07:33:46;13.57;;;10.25;;
72060;SDS011;59925;52.136;5.420;2023-09-08T07:36:13;14.13;;;10.10;;
72060;SDS011;59925;52.136;5.420;2023-09-08T07:38:40;14.50;;;10.57;;
72060;SDS011;59925;52.136;5.420;2023-09-08T07:41:06;14.73;;;9.93;;
72060;SDS011;59925;52.136;5.420;2023-09-08T07:43:33;16.43;;;9.80;;
72060;SDS011;59925;52.136;5.420;2023-09-08T07:45:59;11.95;;;9.63;;
72060;SDS011;59925;52.136;5.420;2023-09-08T07:48:26;12.00;;;9.70;;
72060;SDS011;59925;52.136;5.420;2023-09-08T07:50:53;13.32;;;10.60;;
72060;SDS011;59925;52.136;5.420;2023-09-08T07:53:19;13.65;;;9.95;;
72060;SDS011;59925;52.136;5.420;2023-09-08T07:55:46;13.43;;;9.23;;
72060;SDS011;59925;52.136;5.420;2023-09-08T07:58:12;14.38;;;9.15;;
72060;SDS011;59925;52.136;5.420;2023-09-08T08:00:38;14.50;;;10.07;;
72060;SDS011;59925;52.136;5.420;2023-09-08T08:03:05;12.63;;;9.57;;
72060;SDS011;59925;52.136;5.420;2023-09-08T08:05:32;13.30;;;10.48;;
72060;SDS011;59925;52.136;5.420;2023-09-08T08:07:59;12.20;;;9.43;;
72060;SDS011;59925;52.136;5.420;2023-09-08T08:10:25;12.68;;;10.40;;
72060;SDS011;59925;52.136;5.420;2023-09-08T08:12:52;12.82;;;9.50;;
72060;SDS011;59925;52.136;5.420;2023-09-08T08:15:19;14.95;;;10.32;;
72060;SDS011;59925;52.136;5.420;2023-09-08T08:17:49;12.57;;;9.98;;
72060;SDS011;59925;52.136;5.420;2023-09-08T08:20:16;14.83;;;9.63;;
72060;SDS011;59925;52.136;5.420;2023-09-08T08:22:45;13.43;;;9.77;;
72060;SDS011;59925;52.136;5.420;2023-09-08T08:25:12;18.27;;;10.55;;
72060;SDS011;59925;52.136;5.420;2023-09-08T08:27:39;11.32;;;9.30;;
72060;SDS011;59925;52.136;5.420;2023-09-08T08:30:07;12.30;;;9.10;;
72060;SDS011;59925;52.136;5.420;2023-09-08T08:32:33;14.23;;;10.47;;
72060;SDS011;59925;52.136;5.420;2023-09-08T08:35:01;13.60;;;10.20;;
72060;SDS011;59925;52.136;5.420;2023-09-08T08:37:27;12.98;;;9.60;;
72060;SDS011;59925;52.136;5.420;2023-09-08T08:39:53;13.50;;;9.68;;
72060;SDS011;59925;52.136;5.420;2023-09-08T08:42:20;12.50;;;8.85;;
72060;SDS011;59925;52.136;5.420;2023-09-08T08:44:48;11.60;;;9.17;;
72060;SDS011;59925;52.136;5.420;2023-09-08T08:47:16;11.40;;;9.43;;
72060;SDS011;59925;52.136;5.420;2023-09-08T08:49:43;10.80;;;9.52;;
72060;SDS011;59925;52.136;5.420;2023-09-08T08:52:13;11.93;;;8.80;;
72060;SDS011;59925;52.136;5.420;2023-09-08T08:54:41;11.90;;;9.93;;
72060;SDS011;59925;52.136;5.420;2023-09-08T08:57:09;14.93;;;9.10;;
72060;SDS011;59925;52.136;5.420;2023-09-08T08:59:37;9.70;;;8.68;;
72060;SDS011;59925;52.136;5.420;2023-09-08T09:02:03;9.57;;;7.75;;
72060;SDS011;59925;52.136;5.420;2023-09-08T09:04:31;11.35;;;8.50;;
72060;SDS011;59925;52.136;5.420;2023-09-08T09:06:59;10.13;;;8.15;;
72060;SDS011;59925;52.136;5.420;2023-09-08T09:09:25;10.83;;;8.50;;
72060;SDS011;59925;52.136;5.420;2023-09-08T09:11:52;10.93;;;9.63;;
72060;SDS011;59925;52.136;5.420;2023-09-08T09:14:19;11.32;;;9.18;;
72060;SDS011;59925;52.136;5.420;2023-09-08T09:16:46;10.32;;;8.00;;
72060;SDS011;59925;52.136;5.420;2023-09-08T09:19:18;10.27;;;8.38;;
72060;SDS011;59925;52.136;5.420;2023-09-08T09:21:51;14.23;;;8.57;;
72060;SDS011;59925;52.136;5.420;2023-09-08T09:24:30;11.13;;;8.13;;
72060;SDS011;59925;52.136;5.420;2023-09-08T09:27:03;10.98;;;8.05;;
72060;SDS011;59925;52.136;5.420;2023-09-08T09:29:34;11.65;;;8.70;;
72060;SDS011;59925;52.136;5.420;2023-09-08T09:32:09;8.65;;;7.75;;
72060;SDS011;59925;52.136;5.420;2023-09-08T09:34:36;12.93;;;9.10;;
72060;SDS011;59925;52.136;5.420;2023-09-08T09:37:14;10.30;;;8.48;;
72060;SDS011;59925;52.136;5.420;2023-09-08T09:39:40;10.43;;;7.90;;
72060;SDS011;59925;52.136;5.420;2023-09-08T09:42:07;10.70;;;7.20;;
72060;SDS011;59925;52.136;5.420;2023-09-08T09:44:33;11.10;;;7.35;;
72060;SDS011;59925;52.136;5.420;2023-09-08T09:47:00;8.87;;;7.53;;
72060;SDS011;59925;52.136;5.420;2023-09-08T09:49:27;8.48;;;7.13;;
72060;SDS011;59925;52.136;5.420;2023-09-08T09:51:58;8.25;;;7.32;;
72060;SDS011;59925;52.136;5.420;2023-09-08T09:54:25;8.27;;;7.20;;
72060;SDS011;59925;52.136;5.420;2023-09-08T09:56:51;9.27;;;6.80;;
72060;SDS011;59925;52.136;5.420;2023-09-08T09:59:19;9.77;;;7.17;;
72060;SDS011;59925;52.136;5.420;2023-09-08T10:01:46;9.80;;;7.43;;
72060;SDS011;59925;52.136;5.420;2023-09-08T10:04:13;11.27;;;8.23;;
72060;SDS011;59925;52.136;5.420;2023-09-08T10:06:41;10.77;;;7.78;;
72060;SDS011;59925;52.136;5.420;2023-09-08T10:09:09;8.25;;;7.18;;
72060;SDS011;59925;52.136;5.420;2023-09-08T10:11:49;8.70;;;6.90;;
72060;SDS011;59925;52.136;5.420;2023-09-08T10:14:17;7.85;;;7.05;;
72060;SDS011;59925;52.136;5.420;2023-09-08T10:16:45;8.15;;;6.80;;
72060;SDS011;59925;52.136;5.420;2023-09-08T10:19:16;9.15;;;6.85;;
72060;SDS011;59925;52.136;5.420;2023-09-08T10:21:45;8.85;;;7.40;;
72060;SDS011;59925;52.136;5.420;2023-09-08T10:24:16;9.63;;;7.77;;
72060;SDS011;59925;52.136;5.420;2023-09-08T10:26:58;8.35;;;7.45;;
72060;SDS011;59925;52.136;5.420;2023-09-08T10:29:31;11.15;;;8.35;;
72060;SDS011;59925;52.136;5.420;2023-09-08T10:31:58;11.15;;;6.80;;
72060;SDS011;59925;52.136;5.420;2023-09-08T10:34:26;8.23;;;7.28;;
72060;SDS011;59925;52.136;5.420;2023-09-08T10:36:54;8.73;;;6.60;;
72060;SDS011;59925;52.136;5.420;2023-09-08T10:39:27;10.02;;;7.22;;
72060;SDS011;59925;52.136;5.420;2023-09-08T10:42:19;8.98;;;7.60;;
72060;SDS011;59925;52.136;5.420;2023-09-08T10:45:15;12.50;;;7.20;;
72060;SDS011;59925;52.136;5.420;2023-09-08T10:50:18;8.50;;;7.00;;
72060;SDS011;59925;52.136;5.420;2023-09-08T10:53:03;7.70;;;6.90;;
72060;SDS011;59925;52.136;5.420;2023-09-08T10:55:39;9.32;;;6.80;;
72060;SDS011;59925;52.136;5.420;2023-09-08T10:58:10;9.27;;;7.13;;
72060;SDS011;59925;52.136;5.420;2023-09-08T11:00:44;10.75;;;7.38;;
72060;SDS011;59925;52.136;5.420;2023-09-08T11:03:25;8.13;;;7.13;;
72060;SDS011;59925;52.136;5.420;2023-09-08T11:05:54;9.50;;;7.20;;
72060;SDS011;59925;52.136;5.420;2023-09-08T11:08:21;7.80;;;6.80;;
72060;SDS011;59925;52.136;5.420;2023-09-08T11:10:48;10.68;;;7.78;;
72060;SDS011;59925;52.136;5.420;2023-09-08T11:13:15;11.00;;;6.90;;
72060;SDS011;59925;52.136;5.420;2023-09-08T11:15:41;7.93;;;6.70;;
72060;SDS011;59925;52.136;5.420;2023-09-08T11:18:08;11.05;;;7.47;;
72060;SDS011;59925;52.136;5.420;2023-09-08T11:20:35;9.85;;;8.02;;
72060;SDS011;59925;52.136;5.420;2023-09-08T11:23:01;11.10;;;7.85;;
72060;SDS011;59925;52.136;5.420;2023-09-08T11:25:31;9.32;;;7.35;;
72060;SDS011;59925;52.136;5.420;2023-09-08T11:27:59;10.33;;;6.73;;
72060;SDS011;59925;52.136;5.420;2023-09-08T11:30:27;8.40;;;7.00;;
72060;SDS011;59925;52.136;5.420;2023-09-08T11:32:53;9.23;;;7.53;;
72060;SDS011;59925;52.136;5.420;2023-09-08T11:35:20;7.15;;;6.22;;
72060;SDS011;59925;52.136;5.420;2023-09-08T11:37:47;7.70;;;6.78;;
72060;SDS011;59925;52.136;5.420;2023-09-08T11:40:15;9.77;;;6.97;;
72060;SDS011;59925;52.136;5.420;2023-09-08T11:42:43;25.55;;;7.28;;
72060;SDS011;59925;52.136;5.420;2023-09-08T11:45:12;14.40;;;7.60;;
72060;SDS011;59925;52.136;5.420;2023-09-08T11:47:44;9.15;;;6.80;;
72060;SDS011;59925;52.136;5.420;2023-09-08T11:50:11;9.57;;;5.95;;
72060;SDS011;59925;52.136;5.420;2023-09-08T11:52:43;6.67;;;5.60;;
72060;SDS011;59925;52.136;5.420;2023-09-08T11:55:11;7.38;;;6.47;;
72060;SDS011;59925;52.136;5.420;2023-09-08T11:57:42;6.03;;;5.53;;
72060;SDS011;59925;52.136;5.420;2023-09-08T12:00:10;7.40;;;5.80;;
72060;SDS011;59925;52.136;5.420;2023-09-08T12:02:42;9.77;;;6.30;;
72060;SDS011;59925;52.136;5.420;2023-09-08T12:05:12;10.53;;;5.97;;
72060;SDS011;59925;52.136;5.420;2023-09-08T12:07:52;8.02;;;6.22;;
72060;SDS011;59925;52.136;5.420;2023-09-08T12:10:19;7.88;;;7.07;;
72060;SDS011;59925;52.136;5.420;2023-09-08T12:12:50;6.97;;;6.30;;
72060;SDS011;59925;52.136;5.420;2023-09-08T12:18:05;8.07;;;6.13;;
72060;SDS011;59925;52.136;5.420;2023-09-08T12:20:34;9.07;;;6.57;;
72060;SDS011;59925;52.136;5.420;2023-09-08T12:23:02;6.95;;;6.30;;
72060;SDS011;59925;52.136;5.420;2023-09-08T12:25:30;6.72;;;5.63;;
72060;SDS011;59925;52.136;5.420;2023-09-08T12:28:04;7.22;;;6.55;;
72060;SDS011;59925;52.136;5.420;2023-09-08T12:30:31;9.70;;;5.90;;
72060;SDS011;59925;52.136;5.420;2023-09-08T12:33:00;8.05;;;5.47;;
72060;SDS011;59925;52.136;5.420;2023-09-08T12:35:27;7.10;;;5.80;;
72060;SDS011;59925;52.136;5.420;2023-09-08T12:38:04;7.63;;;5.95;;
72060;SDS011;59925;52.136;5.420;2023-09-08T12:40:35;6.90;;;6.22;;
72060;SDS011;59925;52.136;5.420;2023-09-08T12:43:03;8.93;;;6.37;;
72060;SDS011;59925;52.136;5.420;2023-09-08T12:45:50;7.00;;;6.30;;
72060;SDS011;59925;52.136;5.420;2023-09-08T12:48:17;6.72;;;6.13;;
72060;SDS011;59925;52.136;5.420;2023-09-08T12:50:43;7.55;;;6.00;;
72060;SDS011;59925;52.136;5.420;2023-09-08T12:53:10;7.03;;;6.15;;
72060;SDS011;59925;52.136;5.420;2023-09-08T12:55:36;7.27;;;6.13;;
72060;SDS011;59925;52.136;5.420;2023-09-08T12:58:03;7.20;;;6.47;;
72060;SDS011;59925;52.136;5.420;2023-09-08T13:00:30;8.77;;;6.82;;
72060;SDS011;59925;52.136;5.420;2023-09-08T13:02:56;10.18;;;6.93;;
72060;SDS011;59925;52.136;5.420;2023-09-08T13:05:23;7.22;;;5.93;;
72060;SDS011;59925;52.136;5.420;2023-09-08T13:07:49;7.90;;;6.13;;
72060;SDS011;59925;52.136;5.420;2023-09-08T13:10:16;6.60;;;5.90;;
72060;SDS011;59925;52.136;5.420;2023-09-08T13:12:42;8.88;;;6.32;;
72060;SDS011;59925;52.136;5.420;2023-09-08T13:15:09;9.80;;;5.93;;
72060;SDS011;59925;52.136;5.420;2023-09-08T13:17:35;7.30;;;6.35;;
72060;SDS011;59925;52.136;5.420;2023-09-08T13:20:02;6.90;;;6.20;;
72060;SDS011;59925;52.136;5.420;2023-09-08T13:22:29;6.90;;;5.75;;
72060;SDS011;59925;52.136;5.420;2023-09-08T13:24:56;7.68;;;5.97;;
72060;SDS011;59925;52.136;5.420;2023-09-08T13:27:22;7.03;;;5.82;;
72060;SDS011;59925;52.136;5.420;2023-09-08T13:29:49;6.95;;;5.15;;
72060;SDS011;59925;52.136;5.420;2023-09-08T13:32:16;7.33;;;6.10;;
72060;SDS011;59925;52.136;5.420;2023-09-08T13:34:43;6.88;;;6.22;;
72060;SDS011;59925;52.136;5.420;2023-09-08T13:37:10;11.15;;;6.68;;
72060;SDS011;59925;52.136;5.420;2023-09-08T13:39:36;7.72;;;5.78;;
72060;SDS011;59925;52.136;5.420;2023-09-08T13:42:03;7.88;;;5.80;;
72060;SDS011;59925;52.136;5.420;2023-09-08T13:44:29;7.10;;;6.07;;
72060;SDS011;59925;52.136;5.420;2023-09-08T13:46:56;9.18;;;5.47;;
72060;SDS011;59925;52.136;5.420;2023-09-08T13:49:23;8.27;;;5.60;;
72060;SDS011;59925;52.136;5.420;2023-09-08T13:51:52;9.10;;;6.10;;
72060;SDS011;59925;52.136;5.420;2023-09-08T13:54:22;6.57;;;5.90;;
72060;SDS011;59925;52.136;5.420;2023-09-08T13:56:57;7.13;;;6.43;;
72060;SDS011;59925;52.136;5.420;2023-09-08T13:59:33;7.30;;;6.60;;
72060;SDS011;59925;52.136;5.420;2023-09-08T14:02:02;8.07;;;6.28;;
72060;SDS011;59925;52.136;5.420;2023-09-08T14:04:49;5.60;;;5.10;;
72060;SDS011;59925;52.136;5.420;2023-09-08T14:07:19;5.97;;;4.95;;
72060;SDS011;59925;52.136;5.420;2023-09-08T14:09:53;8.13;;;5.20;;
72060;SDS011;59925;52.136;5.420;2023-09-08T14:12:31;5.93;;;5.38;;
72060;SDS011;59925;52.136;5.420;2023-09-08T14:15:01;7.60;;;5.40;;
72060;SDS011;59925;52.136;5.420;2023-09-08T14:17:28;10.65;;;5.45;;
72060;SDS011;59925;52.136;5.420;2023-09-08T14:19:54;8.13;;;5.65;;
72060;SDS011;59925;52.136;5.420;2023-09-08T14:22:21;5.93;;;5.37;;
72060;SDS011;59925;52.136;5.420;2023-09-08T14:24:47;6.53;;;5.88;;
72060;SDS011;59925;52.136;5.420;2023-09-08T14:27:14;7.90;;;5.40;;
72060;SDS011;59925;52.136;5.420;2023-09-08T14:29:40;8.98;;;6.05;;
72060;SDS011;59925;52.136;5.420;2023-09-08T14:32:07;6.47;;;5.28;;
72060;SDS011;59925;52.136;5.420;2023-09-08T14:34:33;5.70;;;5.10;;
72060;SDS011;59925;52.136;5.420;2023-09-08T14:37:00;6.45;;;5.53;;
72060;SDS011;59925;52.136;5.420;2023-09-08T14:39:29;6.13;;;5.53;;
72060;SDS011;59925;52.136;5.420;2023-09-08T14:41:56;6.20;;;5.60;;
72060;SDS011;59925;52.136;5.420;2023-09-08T14:44:22;8.13;;;5.50;;
72060;SDS011;59925;52.136;5.420;2023-09-08T14:46:50;7.47;;;5.60;;
72060;SDS011;59925;52.136;5.420;2023-09-08T14:49:17;7.18;;;5.80;;
72060;SDS011;59925;52.136;5.420;2023-09-08T14:51:43;7.07;;;5.68;;
72060;SDS011;59925;52.136;5.420;2023-09-08T14:54:10;7.13;;;5.55;;